createdAt,value
2023-02-25T00:01:14.774Z,-2.30
2023-02-25T00:03:42.446Z,-2.30
2023-02-25T00:06:13.679Z,-2.20
2023-02-25T00:08:45.813Z,-2.20
2023-02-25T00:11:15.069Z,-2.30
2023-02-25T00:13:43.101Z,-2.40
2023-02-25T00:16:11.208Z,-2.30
2023-02-25T00:18:41.129Z,-2.20
2023-02-25T00:21:15.559Z,-2.10
2023-02-25T00:23:48.022Z,-2.10
2023-02-25T00:26:16.423Z,-2.20
2023-02-25T00:28:45.038Z,-2.30
2023-02-25T00:31:18.695Z,-2.30
2023-02-25T00:33:46.338Z,-2.40
2023-02-25T00:36:19.254Z,-2.30
2023-02-25T00:38:57.499Z,-2.30
2023-02-25T00:41:28.279Z,-2.40
2023-02-25T00:44:00.753Z,-2.40
2023-02-25T00:46:30.653Z,-2.40
2023-02-25T00:48:59.159Z,-2.40
2023-02-25T00:51:31.840Z,-2.40
2023-02-25T00:54:00.016Z,-2.40
2023-02-25T00:56:27.793Z,-2.20
2023-02-25T00:58:55.284Z,-2.20
2023-02-25T01:01:29.372Z,-2.20
2023-02-25T01:03:57.731Z,-2.20
2023-02-25T01:06:27.491Z,-2.20
2023-02-25T01:08:55.111Z,-2.20
2023-02-25T01:11:29.567Z,-2.10
2023-02-25T01:14:06.041Z,-2.20
2023-02-25T01:16:35.296Z,-2.20
2023-02-25T01:19:06.263Z,-2.30
2023-02-25T01:21:36.435Z,-2.30
2023-02-25T01:24:11.775Z,-2.30
2023-02-25T01:26:42.439Z,-2.30
2023-02-25T01:29:15.415Z,-2.30
2023-02-25T01:31:43.979Z,-2.30
2023-02-25T01:34:16.699Z,-2.20
2023-02-25T01:36:45.119Z,-2.20
2023-02-25T01:39:14.057Z,-2.20
2023-02-25T01:41:41.893Z,-2.10
2023-02-25T01:44:22.202Z,-2.10
2023-02-25T01:46:52.027Z,-2.10
2023-02-25T01:49:44.205Z,-2.00
2023-02-25T01:52:20.576Z,-2.00
2023-02-25T01:54:51.919Z,-2.00
2023-02-25T01:57:19.600Z,-2.00
2023-02-25T01:59:48.416Z,-2.10
2023-02-25T02:02:20.003Z,-2.00
2023-02-25T02:04:50.443Z,-1.90
2023-02-25T02:07:19.220Z,-1.80
2023-02-25T02:09:56.206Z,-1.80
2023-02-25T02:12:36.380Z,-1.80
2023-02-25T02:15:09.529Z,-1.70
2023-02-25T02:17:40.376Z,-1.70
2023-02-25T02:20:13.411Z,-1.60
2023-02-25T02:23:05.406Z,-1.70
2023-02-25T02:25:51.758Z,-1.60
2023-02-25T02:28:40.643Z,-1.50
2023-02-25T02:31:23.166Z,-1.40
2023-02-25T02:34:18.201Z,-1.40
2023-02-25T02:36:52.064Z,-1.40
2023-02-25T02:39:45.710Z,-1.40
2023-02-25T02:42:43.397Z,-1.40
2023-02-25T02:45:31.194Z,-1.50
2023-02-25T02:48:06.067Z,-1.50
2023-02-25T02:50:45.671Z,-1.50
2023-02-25T02:53:42.423Z,-1.40
2023-02-25T02:56:12.692Z,-1.40
2023-02-25T02:58:47.491Z,-1.40
2023-02-25T03:01:26.816Z,-1.50
2023-02-25T03:04:03.544Z,-1.50
2023-02-25T03:06:34.918Z,-1.40
2023-02-25T03:09:14.440Z,-1.40
2023-02-25T03:11:42.034Z,-1.40
2023-02-25T03:14:11.026Z,-1.40
2023-02-25T03:16:48.833Z,-1.40
2023-02-25T03:19:20.583Z,-1.40
2023-02-25T03:22:04.531Z,-1.40
2023-02-25T03:24:52.786Z,-1.40
2023-02-25T03:27:34.678Z,-1.40
2023-02-25T03:30:31.990Z,-1.50
2023-02-25T03:33:27.314Z,-1.40
2023-02-25T03:35:59.723Z,-1.40
2023-02-25T03:38:32.258Z,-1.40
2023-02-25T03:41:04.124Z,-1.50
2023-02-25T03:43:38.020Z,-1.50
2023-02-25T03:46:06.739Z,-1.50
2023-02-25T03:48:37.052Z,-1.40
2023-02-25T03:51:06.421Z,-1.50
2023-02-25T03:53:35.975Z,-1.60
2023-02-25T03:56:07.847Z,-1.60
2023-02-25T03:58:37.892Z,-1.50
2023-02-25T04:01:10.844Z,-1.50
2023-02-25T04:03:38.076Z,-1.50
2023-02-25T04:06:09.580Z,-1.50
2023-02-25T04:08:36.963Z,-1.50
2023-02-25T04:11:04.658Z,-1.50
2023-02-25T04:13:31.842Z,-1.40
2023-02-25T04:15:59.457Z,-1.40
2023-02-25T04:18:28.011Z,-1.40
2023-02-25T04:20:55.568Z,-1.40
2023-02-25T04:23:25.758Z,-1.40
2023-02-25T04:25:54.934Z,-1.40
2023-02-25T04:28:22.339Z,-1.40
2023-02-25T04:30:50.376Z,-1.40
2023-02-25T04:33:17.588Z,-1.30
2023-02-25T04:35:44.940Z,-1.30
2023-02-25T04:38:12.630Z,-1.30
2023-02-25T04:40:39.809Z,-1.30
2023-02-25T04:43:10.058Z,-1.30
2023-02-25T04:45:38.430Z,-1.20
2023-02-25T04:48:06.300Z,-1.20
2023-02-25T04:50:34.031Z,-1.20
2023-02-25T04:53:02.547Z,-1.20
2023-02-25T04:55:31.603Z,-1.20
2023-02-25T04:57:59.499Z,-1.20
2023-02-25T05:00:30.458Z,-1.20
2023-02-25T05:02:59.088Z,-1.20
2023-02-25T05:05:26.755Z,-1.20
2023-02-25T05:07:54.108Z,-1.30
2023-02-25T05:10:21.357Z,-1.40
2023-02-25T05:12:48.556Z,-1.40
2023-02-25T05:15:16.471Z,-1.30
2023-02-25T05:17:43.771Z,-1.40
2023-02-25T05:20:14.687Z,-1.30
2023-02-25T05:22:42.477Z,-1.30
2023-02-25T05:25:11.731Z,-1.30
2023-02-25T05:27:39.511Z,-1.30
2023-02-25T05:30:07.498Z,-1.30
2023-02-25T05:32:35.024Z,-1.30
2023-02-25T05:35:02.391Z,-1.30
2023-02-25T05:37:31.292Z,-1.30
2023-02-25T05:40:01.469Z,-1.30
2023-02-25T05:42:29.452Z,-1.30
2023-02-25T05:44:56.792Z,-1.20
2023-02-25T05:47:23.862Z,-1.20
2023-02-25T05:49:51.293Z,-1.30
2023-02-25T05:52:18.454Z,-1.20
2023-02-25T05:54:45.966Z,-1.20
2023-02-25T05:57:13.490Z,-1.20
2023-02-25T05:59:40.930Z,-1.20
2023-02-25T06:02:08.367Z,-1.20
2023-02-25T06:04:35.769Z,-1.20
2023-02-25T06:07:04.509Z,-1.30
2023-02-25T06:09:33.339Z,-1.20
2023-02-25T06:12:00.993Z,-1.20
2023-02-25T06:14:28.213Z,-1.20
2023-02-25T06:16:57.125Z,-1.20
2023-02-25T06:19:26.490Z,-1.20
2023-02-25T06:21:57.018Z,-1.20
2023-02-25T06:24:24.973Z,-1.10
2023-02-25T06:26:52.146Z,-1.10
2023-02-25T06:29:19.511Z,-1.20
2023-02-25T06:31:47.344Z,-1.20
2023-02-25T06:34:14.672Z,-1.20
2023-02-25T06:36:42.059Z,-1.20
2023-02-25T06:39:09.254Z,-1.20
2023-02-25T06:41:36.352Z,-1.10
2023-02-25T06:44:04.507Z,-0.90
2023-02-25T06:46:31.858Z,-0.80
2023-02-25T06:49:00.481Z,-0.80
2023-02-25T06:51:28.419Z,-0.80
2023-02-25T06:53:55.909Z,-0.70
2023-02-25T06:56:23.767Z,-0.80
2023-02-25T06:58:53.383Z,-0.70
2023-02-25T07:01:20.667Z,-0.70
2023-02-25T07:03:47.895Z,-0.60
2023-02-25T07:06:16.541Z,-0.60
2023-02-25T07:08:43.988Z,-0.70
2023-02-25T07:11:18.445Z,-0.50
2023-02-25T07:13:48.557Z,-0.40
2023-02-25T07:16:17.359Z,-0.50
2023-02-25T07:18:45.591Z,-0.30
2023-02-25T07:21:13.222Z,-0.30
2023-02-25T07:23:40.910Z,-0.10
2023-02-25T07:26:10.133Z,-0.20
2023-02-25T07:28:38.158Z,-0.50
2023-02-25T07:31:14.726Z,-0.50
2023-02-25T07:33:42.256Z,-0.60
2023-02-25T07:36:10.911Z,-0.70
2023-02-25T07:38:39.363Z,-0.70
2023-02-25T07:41:12.501Z,-0.60
2023-02-25T07:43:40.147Z,-0.50
2023-02-25T07:46:08.822Z,-0.70
2023-02-25T07:48:36.406Z,-0.60
2023-02-25T07:51:09.224Z,-0.90
2023-02-25T07:53:36.791Z,-0.70
2023-02-25T07:56:06.203Z,-0.60
2023-02-25T07:58:34.492Z,-0.80
2023-02-25T08:01:03.545Z,-0.40
2023-02-25T08:03:30.875Z,0.00
2023-02-25T08:06:05.278Z,0.10
2023-02-25T08:08:36.184Z,0.20
2023-02-25T08:11:09.461Z,0.20
2023-02-25T08:13:37.230Z,0.10
2023-02-25T08:16:16.752Z,-0.10
2023-02-25T08:18:47.100Z,-0.20
2023-02-25T08:21:21.241Z,-0.40
2023-02-25T08:23:58.446Z,-0.30
2023-02-25T08:26:31.771Z,0.00
2023-02-25T08:29:00.577Z,0.00
2023-02-25T08:31:28.533Z,-0.10
2023-02-25T08:33:58.018Z,0.20
2023-02-25T08:36:33.143Z,0.30
2023-02-25T08:39:14.406Z,0.50
2023-02-25T08:41:47.076Z,0.60
2023-02-25T08:44:16.626Z,0.60
2023-02-25T08:46:43.768Z,0.30
2023-02-25T08:49:19.770Z,0.10
2023-02-25T08:52:02.991Z,0.10
2023-02-25T08:54:36.126Z,0.10
2023-02-25T08:57:09.284Z,-0.10
2023-02-25T08:59:42.179Z,-0.20
2023-02-25T09:02:19.576Z,-0.20
2023-02-25T09:04:48.388Z,-0.10
2023-02-25T09:07:17.987Z,-0.10
2023-02-25T09:09:48.630Z,-0.30
2023-02-25T09:12:17.808Z,-0.50
2023-02-25T09:14:48.249Z,-0.60
2023-02-25T09:17:21.057Z,-0.50
2023-02-25T09:19:49.418Z,-0.60
2023-02-25T09:22:17.075Z,-0.60
2023-02-25T09:24:44.678Z,-0.50
2023-02-25T09:27:12.260Z,-0.50
2023-02-25T09:29:40.393Z,-0.30
2023-02-25T09:32:08.989Z,-0.50
2023-02-25T09:34:36.301Z,-0.40
2023-02-25T09:37:06.829Z,-0.40
2023-02-25T09:39:34.493Z,0.00
2023-02-25T09:42:09.816Z,0.10
2023-02-25T09:44:44.740Z,0.20
2023-02-25T09:47:15.173Z,0.20
2023-02-25T09:50:00.784Z,0.20
2023-02-25T09:52:34.011Z,0.20
2023-02-25T09:55:15.263Z,0.10
2023-02-25T09:57:44.457Z,0.20
2023-02-25T10:00:18.754Z,0.30
2023-02-25T10:03:14.071Z,0.60
2023-02-25T10:06:00.307Z,0.40
2023-02-25T10:08:42.092Z,0.40
2023-02-25T10:11:19.266Z,0.20
2023-02-25T10:14:00.482Z,0.10
2023-02-25T10:16:33.966Z,0.50
2023-02-25T10:19:35.072Z,0.30
2023-02-25T10:22:34.651Z,0.30
2023-02-25T10:25:14.943Z,0.40
2023-02-25T10:28:07.959Z,0.40
2023-02-25T10:30:57.966Z,0.20
2023-02-25T10:33:27.405Z,0.40
2023-02-25T10:36:07.894Z,0.20
2023-02-25T10:38:38.653Z,0.30
2023-02-25T10:41:06.864Z,0.00
2023-02-25T10:43:35.027Z,0.10
2023-02-25T10:46:16.040Z,-0.10
2023-02-25T10:48:50.642Z,-0.20
2023-02-25T10:51:17.918Z,-0.30
2023-02-25T10:53:57.843Z,-0.30
2023-02-25T10:56:29.086Z,-0.20
2023-02-25T10:59:35.676Z,-0.10
2023-02-25T11:02:05.151Z,0.00
2023-02-25T11:04:38.620Z,-0.20
2023-02-25T11:07:25.948Z,-0.10
2023-02-25T11:10:19.804Z,-0.30
2023-02-25T11:12:49.716Z,-0.30
2023-02-25T11:15:43.749Z,-0.30
2023-02-25T11:18:32.872Z,-0.20
2023-02-25T11:21:10.089Z,0.00
2023-02-25T11:23:39.969Z,0.00
2023-02-25T11:26:08.505Z,0.00
2023-02-25T11:28:47.468Z,0.20
2023-02-25T11:31:22.423Z,0.20
2023-02-25T11:34:14.285Z,0.10
2023-02-25T11:36:42.677Z,-0.10
2023-02-25T11:39:28.287Z,-0.20
2023-02-25T11:41:58.311Z,-0.20
2023-02-25T11:44:40.216Z,-0.10
2023-02-25T11:47:25.896Z,0.00
2023-02-25T11:50:14.695Z,-0.10
2023-02-25T11:52:46.380Z,-0.30
2023-02-25T11:55:34.105Z,-0.40
2023-02-25T11:58:20.225Z,-0.30
2023-02-25T12:00:47.589Z,-0.20
2023-02-25T12:03:29.833Z,-0.30
2023-02-25T12:06:09.476Z,-0.40
2023-02-25T12:08:48.614Z,-0.50
2023-02-25T12:11:37.781Z,-0.50
2023-02-25T12:14:44.232Z,-0.50
2023-02-25T12:17:42.548Z,-0.30
2023-02-25T12:20:28.204Z,-0.10
2023-02-25T12:23:22.057Z,-0.10
2023-02-25T12:26:13.386Z,-0.10
2023-02-25T12:29:08.857Z,-0.10
2023-02-25T12:32:01.659Z,-0.20
2023-02-25T12:34:50.929Z,-0.10
2023-02-25T12:37:18.170Z,-0.10
2023-02-25T12:40:05.366Z,-0.10
2023-02-25T12:43:15.698Z,0.00
2023-02-25T12:46:01.364Z,0.10
2023-02-25T12:49:03.706Z,-0.20
2023-02-25T12:51:52.014Z,-0.30
2023-02-25T12:54:57.168Z,-0.20
2023-02-25T12:57:42.356Z,-0.20
2023-02-25T13:00:47.821Z,0.00
2023-02-25T13:03:33.446Z,-0.10
2023-02-25T13:06:25.973Z,0.00
2023-02-25T13:09:20.776Z,-0.20
2023-02-25T13:12:40.881Z,-0.10
2023-02-25T13:15:52.894Z,-0.10
2023-02-25T13:18:51.868Z,-0.10
2023-02-25T13:21:48.115Z,-0.20
2023-02-25T13:24:27.670Z,-0.30
2023-02-25T13:27:01.382Z,-0.40
2023-02-25T13:29:40.570Z,-0.40
2023-02-25T13:32:29.114Z,-0.40
2023-02-25T13:35:14.887Z,-0.30
2023-02-25T13:37:48.035Z,-0.40
2023-02-25T13:40:26.940Z,-0.40
2023-02-25T13:43:06.654Z,-0.30
2023-02-25T13:46:02.374Z,-0.40
2023-02-25T13:48:55.830Z,-0.30
2023-02-25T13:52:01.103Z,-0.40
2023-02-25T13:54:46.566Z,-0.10
2023-02-25T13:57:38.460Z,-0.10
2023-02-25T14:00:17.985Z,0.00
2023-02-25T14:03:15.193Z,-0.20
2023-02-25T14:06:18.602Z,-0.20
2023-02-25T14:09:07.620Z,-0.20
2023-02-25T14:11:43.734Z,-0.30
2023-02-25T14:14:40.542Z,-0.30
2023-02-25T14:17:46.264Z,-0.30
2023-02-25T14:20:36.464Z,-0.50
2023-02-25T14:23:33.094Z,-0.50
2023-02-25T14:26:24.258Z,-0.50
2023-02-25T14:29:10.527Z,-0.50
2023-02-25T14:31:50.789Z,-0.70
2023-02-25T14:34:31.303Z,-0.70
2023-02-25T14:37:16.783Z,-0.70
2023-02-25T14:40:05.453Z,-0.70
2023-02-25T14:42:49.417Z,-0.50
2023-02-25T14:45:23.432Z,-0.50
2023-02-25T14:48:06.250Z,-0.60
2023-02-25T14:50:45.647Z,-0.50
2023-02-25T14:53:49.707Z,-0.70
2023-02-25T14:56:54.354Z,-0.70
2023-02-25T14:59:58.489Z,-0.90
2023-02-25T15:02:37.638Z,-0.80
2023-02-25T15:05:08.774Z,-1.00
2023-02-25T15:08:05.113Z,-1.00
2023-02-25T15:11:07.170Z,-0.90
2023-02-25T15:13:52.268Z,-0.90
2023-02-25T15:16:19.714Z,-0.70
2023-02-25T15:19:17.090Z,-0.80
2023-02-25T15:21:46.880Z,-0.80
2023-02-25T15:25:12.786Z,-1.00
2023-02-25T15:27:40.127Z,-1.10
2023-02-25T15:30:09.218Z,-1.30
2023-02-25T15:33:13.968Z,-1.40
2023-02-25T15:35:41.109Z,-1.50
2023-02-25T15:38:19.815Z,-1.50
2023-02-25T15:40:52.159Z,-1.50
2023-02-25T15:43:19.193Z,-1.50
2023-02-25T15:45:48.384Z,-1.60
2023-02-25T15:48:21.682Z,-1.60
2023-02-25T15:50:49.174Z,-1.70
2023-02-25T15:53:25.570Z,-1.70
2023-02-25T15:56:05.188Z,-1.70
2023-02-25T15:58:32.608Z,-1.70
2023-02-25T16:01:23.694Z,-1.80
2023-02-25T16:03:52.758Z,-1.80
2023-02-25T16:06:40.874Z,-1.80
2023-02-25T16:09:14.502Z,-1.80
2023-02-25T16:11:50.626Z,-1.90
2023-02-25T16:14:19.882Z,-2.00
2023-02-25T16:16:57.365Z,-2.00
2023-02-25T16:19:29.009Z,-2.00
2023-02-25T16:22:08.837Z,-2.00
2023-02-25T16:24:37.382Z,-1.90
2023-02-25T16:27:13.643Z,-2.00
2023-02-25T16:29:54.721Z,-2.00
2023-02-25T16:32:21.947Z,-2.10
2023-02-25T16:34:55.706Z,-2.20
2023-02-25T16:37:46.589Z,-2.30
2023-02-25T16:40:35.243Z,-2.30
2023-02-25T16:43:02.984Z,-2.40
2023-02-25T16:46:02.989Z,-2.40
2023-02-25T16:48:38.408Z,-2.50
2023-02-25T16:51:20.380Z,-2.60
2023-02-25T16:53:51.880Z,-2.60
2023-02-25T16:56:24.072Z,-2.60
2023-02-25T16:59:26.739Z,-2.60
2023-02-25T17:01:57.127Z,-2.70
2023-02-25T17:04:32.108Z,-2.70
2023-02-25T17:07:08.413Z,-2.80
2023-02-25T17:09:36.287Z,-2.80
2023-02-25T17:12:04.587Z,-2.80
2023-02-25T17:14:32.427Z,-2.90
2023-02-25T17:17:00.584Z,-2.80
2023-02-25T17:19:28.455Z,-2.80
2023-02-25T17:21:59.098Z,-2.90
2023-02-25T17:24:32.338Z,-3.00
2023-02-25T17:27:01.393Z,-3.10
2023-02-25T17:29:36.889Z,-3.10
2023-02-25T17:32:18.868Z,-3.10
2023-02-25T17:34:48.072Z,-3.20
2023-02-25T17:37:16.899Z,-3.40
2023-02-25T17:39:45.224Z,-3.40
2023-02-25T17:42:34.979Z,-3.50
2023-02-25T17:45:27.206Z,-3.50
2023-02-25T17:47:54.632Z,-3.60
2023-02-25T17:50:33.045Z,-3.60
2023-02-25T17:53:00.776Z,-3.50
2023-02-25T17:55:33.851Z,-3.60
2023-02-25T17:58:02.457Z,-3.70
2023-02-25T18:00:33.363Z,-3.70
2023-02-25T18:03:30.807Z,-3.80
2023-02-25T18:06:00.572Z,-3.80
2023-02-25T18:08:30.546Z,-3.90
2023-02-25T18:11:26.345Z,-4.00
2023-02-25T18:13:54.112Z,-4.00
2023-02-25T18:16:34.853Z,-4.00
2023-02-25T18:19:18.848Z,-4.10
2023-02-25T18:21:46.268Z,-4.10
2023-02-25T18:24:33.489Z,-4.10
2023-02-25T18:27:27.590Z,-4.10
2023-02-25T18:30:14.133Z,-4.20
2023-02-25T18:32:41.622Z,-4.20
2023-02-25T18:35:09.895Z,-4.30
2023-02-25T18:37:38.348Z,-4.30
2023-02-25T18:40:07.434Z,-4.30
2023-02-25T18:42:34.797Z,-4.40
2023-02-25T18:45:16.973Z,-4.40
2023-02-25T18:47:44.854Z,-4.50
2023-02-25T18:50:13.528Z,-4.60
2023-02-25T18:52:41.905Z,-4.60
2023-02-25T18:55:23.880Z,-4.70
2023-02-25T18:57:51.243Z,-4.70
2023-02-25T19:00:22.173Z,-4.70
2023-02-25T19:02:53.028Z,-4.80
2023-02-25T19:05:22.270Z,-4.80
2023-02-25T19:07:50.470Z,-4.90
2023-02-25T19:10:21.960Z,-4.90
2023-02-25T19:12:51.021Z,-4.90
2023-02-25T19:15:21.499Z,-4.90
2023-02-25T19:17:49.805Z,-5.00
2023-02-25T19:20:20.640Z,-4.90
2023-02-25T19:22:53.387Z,-5.00
2023-02-25T19:25:35.016Z,-5.00
2023-02-25T19:28:03.124Z,-5.00
2023-02-25T19:30:35.189Z,-5.00
2023-02-25T19:33:05.153Z,-5.10
2023-02-25T19:35:35.525Z,-5.20
2023-02-25T19:38:03.541Z,-5.20
2023-02-25T19:40:31.288Z,-5.30
2023-02-25T19:42:58.985Z,-5.20
2023-02-25T19:45:27.025Z,-5.20
2023-02-25T19:47:55.098Z,-5.20
2023-02-25T19:50:25.756Z,-5.30
2023-02-25T19:52:55.946Z,-5.40
2023-02-25T19:55:24.206Z,-5.40
2023-02-25T19:57:51.531Z,-5.40
2023-02-25T20:00:31.378Z,-5.50
2023-02-25T20:03:00.296Z,-5.50
2023-02-25T20:05:27.486Z,-5.50
2023-02-25T20:07:54.986Z,-5.60
2023-02-25T20:10:22.555Z,-5.60
2023-02-25T20:12:50.064Z,-5.70
2023-02-25T20:15:17.710Z,-5.70
2023-02-25T20:17:46.834Z,-5.70
2023-02-25T20:20:16.267Z,-5.70
2023-02-25T20:22:43.737Z,-5.80
2023-02-25T20:25:14.766Z,-5.90
2023-02-25T20:27:43.763Z,-5.90
2023-02-25T20:30:15.252Z,-6.00
2023-02-25T20:32:44.546Z,-6.00
2023-02-25T20:35:20.673Z,-6.10
2023-02-25T20:38:03.848Z,-6.00
2023-02-25T20:40:31.080Z,-6.00
2023-02-25T20:42:58.866Z,-6.00
2023-02-25T20:45:30.041Z,-6.00
2023-02-25T20:47:57.271Z,-6.00
2023-02-25T20:50:28.330Z,-6.00
2023-02-25T20:52:56.395Z,-6.00
2023-02-25T20:55:24.080Z,-5.90
2023-02-25T20:57:51.377Z,-5.90
2023-02-25T21:00:20.730Z,-5.80
2023-02-25T21:02:48.226Z,-5.80
2023-02-25T21:05:15.868Z,-5.70
2023-02-25T21:07:43.320Z,-5.80
2023-02-25T21:10:11.618Z,-5.80
2023-02-25T21:12:39.097Z,-5.70
2023-02-25T21:15:07.196Z,-5.70
2023-02-25T21:17:34.649Z,-5.70
2023-02-25T21:20:02.038Z,-5.70
2023-02-25T21:22:30.952Z,-5.70
2023-02-25T21:24:59.249Z,-5.80
2023-02-25T21:27:29.145Z,-5.80
2023-02-25T21:29:56.954Z,-5.90
2023-02-25T21:32:24.404Z,-5.90
2023-02-25T21:34:51.663Z,-6.00
2023-02-25T21:37:19.009Z,-6.10
2023-02-25T21:39:47.283Z,-6.20
2023-02-25T21:42:14.758Z,-6.20
2023-02-25T21:44:41.941Z,-6.20
2023-02-25T21:47:09.395Z,-6.20
2023-02-25T21:49:37.198Z,-6.20
2023-02-25T21:52:04.880Z,-6.20
2023-02-25T21:54:32.588Z,-6.20
2023-02-25T21:57:00.099Z,-6.20
2023-02-25T21:59:27.879Z,-6.20
2023-02-25T22:01:55.382Z,-6.20
2023-02-25T22:04:22.653Z,-6.30
2023-02-25T22:06:50.029Z,-6.20
2023-02-25T22:09:18.331Z,-6.20
2023-02-25T22:11:45.654Z,-6.20
2023-02-25T22:14:13.166Z,-6.20
2023-02-25T22:16:41.470Z,-6.20
2023-02-25T22:19:09.024Z,-6.10
2023-02-25T22:21:36.384Z,-6.00
2023-02-25T22:24:05.149Z,-5.90
2023-02-25T22:26:34.364Z,-5.80
2023-02-25T22:29:05.501Z,-5.70
2023-02-25T22:31:34.481Z,-5.60
2023-02-25T22:34:02.531Z,-5.40
2023-02-25T22:36:30.347Z,-5.30
2023-02-25T22:38:58.011Z,-5.20
2023-02-25T22:41:28.397Z,-5.10
2023-02-25T22:43:57.205Z,-5.10
2023-02-25T22:46:30.356Z,-5.10
2023-02-25T22:48:57.873Z,-5.00
2023-02-25T22:51:26.692Z,-4.90
2023-02-25T22:53:55.420Z,-4.80
2023-02-25T22:56:24.406Z,-4.80
2023-02-25T22:58:52.443Z,-4.80
2023-02-25T23:01:22.308Z,-4.70
2023-02-25T23:03:50.735Z,-4.60
2023-02-25T23:06:20.690Z,-4.50
2023-02-25T23:08:48.074Z,-4.50
2023-02-25T23:11:19.446Z,-4.50
2023-02-25T23:13:49.503Z,-4.40
2023-02-25T23:16:22.665Z,-4.40
2023-02-25T23:18:51.659Z,-4.20
2023-02-25T23:21:20.176Z,-4.10
2023-02-25T23:23:53.225Z,-4.10
2023-02-25T23:26:23.853Z,-4.00
2023-02-25T23:28:56.423Z,-3.90
2023-02-25T23:31:30.188Z,-3.90
2023-02-25T23:34:10.615Z,-3.80
2023-02-25T23:36:40.336Z,-3.80
2023-02-25T23:39:08.988Z,-3.80
2023-02-25T23:41:38.523Z,-3.70
2023-02-25T23:44:08.552Z,-3.70
2023-02-25T23:46:36.994Z,-3.60
2023-02-25T23:49:07.616Z,-3.60
2023-02-25T23:51:36.210Z,-3.60
2023-02-25T23:54:06.400Z,-3.50
2023-02-25T23:56:35.317Z,-3.40
2023-02-25T23:59:02.962Z,-3.40
